createdAt,value
2022-12-22T00:00:01.512Z,992.33
2022-12-22T00:01:01.298Z,992.33
2022-12-22T00:01:59.803Z,992.33
2022-12-22T00:02:59.858Z,992.29
2022-12-22T00:04:00.894Z,992.22
2022-12-22T00:05:01.903Z,992.19
2022-12-22T00:06:01.173Z,992.22
2022-12-22T00:07:01.403Z,992.18
2022-12-22T00:08:04.015Z,992.17
2022-12-22T00:09:05.462Z,992.18
2022-12-22T00:10:01.309Z,992.16
2022-12-22T00:11:01.638Z,992.10
2022-12-22T00:12:01.910Z,992.18
2022-12-22T00:13:04.630Z,992.12
2022-12-22T00:14:04.351Z,992.12
2022-12-22T00:15:04.611Z,992.10
2022-12-22T00:16:03.753Z,992.11
2022-12-22T00:17:04.080Z,992.06
2022-12-22T00:18:04.447Z,992.03
2022-12-22T00:19:03.764Z,992.03
2022-12-22T00:20:03.984Z,992.03
2022-12-22T00:21:05.189Z,991.99
2022-12-22T00:22:05.951Z,991.99
2022-12-22T00:23:06.195Z,992.02
2022-12-22T00:24:06.951Z,991.96
2022-12-22T00:25:07.286Z,991.96
2022-12-22T00:26:05.570Z,991.95
2022-12-22T00:27:07.374Z,991.91
2022-12-22T00:28:07.615Z,991.93
2022-12-22T00:29:07.876Z,991.95
2022-12-22T00:30:06.676Z,991.93
2022-12-22T00:31:07.844Z,991.96
2022-12-22T00:32:08.091Z,991.92
2022-12-22T00:33:07.473Z,991.94
2022-12-22T00:34:07.755Z,991.99
2022-12-22T00:35:09.024Z,991.91
2022-12-22T00:36:10.237Z,991.91
2022-12-22T00:37:09.561Z,991.91
2022-12-22T00:38:10.839Z,991.87
2022-12-22T00:39:10.134Z,991.86
2022-12-22T00:40:10.379Z,991.88
2022-12-22T00:41:11.590Z,991.82
2022-12-22T00:42:09.857Z,991.90
2022-12-22T00:43:12.093Z,991.80
2022-12-22T00:44:11.369Z,991.79
2022-12-22T00:45:11.621Z,991.78
2022-12-22T00:46:10.922Z,991.80
2022-12-22T00:47:11.262Z,991.77
2022-12-22T00:48:11.557Z,991.77
2022-12-22T00:49:12.831Z,991.78
2022-12-22T00:50:12.324Z,991.70
2022-12-22T00:51:14.960Z,991.70
2022-12-22T00:52:14.758Z,991.69
2022-12-22T00:53:14.953Z,991.72
2022-12-22T00:54:15.328Z,991.66
2022-12-22T00:55:15.615Z,991.63
2022-12-22T00:56:13.940Z,991.73
2022-12-22T00:57:14.231Z,991.67
2022-12-22T00:58:14.508Z,991.66
2022-12-22T00:59:15.917Z,991.65
2022-12-22T01:00:16.202Z,991.60
2022-12-22T01:01:17.015Z,991.62
2022-12-22T01:02:16.124Z,991.60
2022-12-22T01:03:17.982Z,991.58
2022-12-22T01:04:18.180Z,991.56
2022-12-22T01:05:16.475Z,991.52
2022-12-22T01:06:19.239Z,991.50
2022-12-22T01:07:17.116Z,991.46
2022-12-22T01:08:18.419Z,991.46
2022-12-22T01:09:17.676Z,991.44
2022-12-22T01:10:18.039Z,991.39
2022-12-22T01:11:18.319Z,991.46
2022-12-22T01:12:18.604Z,991.48
2022-12-22T01:13:18.844Z,991.45
2022-12-22T01:14:19.100Z,991.45
2022-12-22T01:15:19.410Z,991.33
2022-12-22T01:16:20.734Z,991.35
2022-12-22T01:17:20.175Z,991.35
2022-12-22T01:18:22.478Z,991.32
2022-12-22T01:19:21.695Z,991.34
2022-12-22T01:21:26.085Z,991.31
2022-12-22T01:22:28.408Z,991.30
2022-12-22T01:23:26.223Z,991.33
2022-12-22T01:24:27.486Z,991.31
2022-12-22T01:25:28.777Z,991.31
2022-12-22T01:26:27.093Z,991.28
2022-12-22T01:27:29.377Z,991.29
2022-12-22T01:28:28.675Z,991.24
2022-12-22T01:29:27.947Z,991.24
2022-12-22T01:30:30.223Z,991.26
2022-12-22T01:31:28.599Z,991.25
2022-12-22T01:32:30.894Z,991.25
2022-12-22T01:33:30.120Z,991.25
2022-12-22T01:34:31.431Z,991.19
2022-12-22T01:35:30.785Z,991.16
2022-12-22T01:36:30.097Z,991.17
2022-12-22T01:37:31.290Z,991.16
2022-12-22T01:38:32.530Z,991.11
2022-12-22T01:39:30.856Z,991.11
2022-12-22T01:40:31.178Z,991.03
2022-12-22T01:41:31.428Z,991.04
2022-12-22T01:42:33.626Z,991.00
2022-12-22T01:43:34.366Z,991.03
2022-12-22T01:44:32.138Z,991.01
2022-12-22T01:45:32.408Z,991.00
2022-12-22T01:46:34.675Z,991.04
2022-12-22T01:47:33.032Z,990.99
2022-12-22T01:48:34.779Z,991.01
2022-12-22T01:49:33.629Z,990.99
2022-12-22T01:50:35.848Z,990.98
2022-12-22T01:51:34.136Z,990.98
2022-12-22T01:52:36.373Z,991.01
2022-12-22T01:53:34.741Z,990.96
2022-12-22T01:54:35.077Z,990.98
2022-12-22T01:55:37.277Z,990.96
2022-12-22T01:56:35.486Z,990.99
2022-12-22T01:57:35.740Z,990.97
2022-12-22T01:58:37.092Z,990.93
2022-12-22T01:59:37.481Z,990.95
2022-12-22T02:00:38.829Z,990.91
2022-12-22T02:01:37.214Z,990.96
2022-12-22T02:02:37.747Z,990.92
2022-12-22T02:03:37.761Z,990.89
2022-12-22T02:04:38.269Z,990.89
2022-12-22T02:05:38.542Z,990.94
2022-12-22T02:06:39.762Z,990.88
2022-12-22T02:07:40.941Z,990.90
2022-12-22T02:08:40.663Z,990.92
2022-12-22T02:09:39.491Z,990.87
2022-12-22T02:10:41.823Z,990.85
2022-12-22T02:11:40.103Z,990.84
2022-12-22T02:12:40.345Z,990.81
2022-12-22T02:13:42.035Z,990.80
2022-12-22T02:14:40.811Z,990.77
2022-12-22T02:15:43.133Z,990.77
2022-12-22T02:16:42.870Z,990.75
2022-12-22T02:17:42.633Z,990.75
2022-12-22T02:18:44.328Z,990.73
2022-12-22T02:19:42.108Z,990.66
2022-12-22T02:20:44.337Z,990.65
2022-12-22T02:21:42.637Z,990.64
2022-12-22T02:22:44.898Z,990.63
2022-12-22T02:23:43.218Z,990.64
2022-12-22T02:24:43.485Z,990.58
2022-12-22T02:25:43.754Z,990.61
2022-12-22T02:26:45.097Z,990.62
2022-12-22T02:27:44.358Z,990.59
2022-12-22T02:28:44.569Z,990.63
2022-12-22T02:29:44.839Z,990.60
2022-12-22T02:30:44.878Z,990.55
2022-12-22T02:31:47.089Z,990.52
2022-12-22T02:32:47.350Z,990.56
2022-12-22T02:33:45.616Z,990.52
2022-12-22T02:34:47.808Z,990.53
2022-12-22T02:35:47.863Z,990.46
2022-12-22T02:36:46.116Z,990.47
2022-12-22T02:37:48.333Z,990.44
2022-12-22T02:38:46.671Z,990.43
2022-12-22T02:39:46.968Z,990.41
2022-12-22T02:40:49.219Z,990.42
2022-12-22T02:41:47.497Z,990.38
2022-12-22T02:42:47.772Z,990.36
2022-12-22T02:43:50.061Z,990.38
2022-12-22T02:44:49.735Z,990.28
2022-12-22T02:45:49.497Z,990.30
2022-12-22T02:46:48.858Z,990.25
2022-12-22T02:47:51.102Z,990.20
2022-12-22T02:48:51.313Z,990.17
2022-12-22T02:49:50.528Z,990.15
2022-12-22T02:50:51.762Z,990.17
2022-12-22T02:51:50.993Z,990.15
2022-12-22T02:52:50.286Z,990.14
2022-12-22T02:53:52.057Z,990.14
2022-12-22T02:54:50.813Z,990.08
2022-12-22T02:55:53.074Z,990.11
2022-12-22T02:56:53.487Z,990.08
2022-12-22T02:57:52.792Z,990.09
2022-12-22T02:58:54.047Z,990.09
2022-12-22T02:59:52.480Z,990.06
2022-12-22T03:00:54.687Z,990.02
2022-12-22T03:01:53.239Z,990.07
2022-12-22T03:02:56.022Z,990.00
2022-12-22T03:03:54.492Z,990.06
2022-12-22T03:04:55.948Z,990.05
2022-12-22T03:05:54.315Z,990.05
2022-12-22T03:06:54.572Z,990.07
2022-12-22T03:07:55.892Z,990.06
2022-12-22T03:08:56.612Z,990.04
2022-12-22T03:09:55.374Z,990.04
2022-12-22T03:10:55.628Z,989.96
2022-12-22T03:11:55.839Z,989.85
2022-12-22T03:12:56.070Z,989.86
2022-12-22T03:13:56.373Z,989.86
2022-12-22T03:14:56.635Z,989.82
2022-12-22T03:15:56.885Z,989.84
2022-12-22T03:16:57.187Z,989.83
2022-12-22T03:17:58.445Z,989.80
2022-12-22T03:18:57.805Z,989.81
2022-12-22T03:19:58.076Z,989.73
2022-12-22T03:20:59.269Z,989.72
2022-12-22T03:22:00.525Z,989.70
2022-12-22T03:22:58.802Z,989.73
2022-12-22T03:24:01.080Z,989.76
2022-12-22T03:24:59.430Z,989.72
2022-12-22T03:25:59.745Z,989.77
2022-12-22T03:26:59.986Z,989.73
2022-12-22T03:28:01.278Z,989.71
2022-12-22T03:29:00.530Z,989.70
2022-12-22T03:30:00.813Z,989.67
2022-12-22T03:31:02.081Z,989.67
2022-12-22T03:32:01.457Z,989.67
2022-12-22T03:33:03.730Z,989.64
2022-12-22T03:34:02.005Z,989.60
2022-12-22T03:35:02.289Z,989.56
2022-12-22T03:36:04.606Z,989.53
2022-12-22T03:37:03.416Z,989.54
2022-12-22T03:38:04.216Z,989.48
2022-12-22T03:39:04.929Z,989.56
2022-12-22T03:40:04.508Z,989.49
2022-12-22T03:41:04.691Z,989.46
2022-12-22T03:42:04.807Z,989.44
2022-12-22T03:43:05.004Z,989.44
2022-12-22T03:44:05.123Z,989.40
2022-12-22T03:45:05.321Z,989.40
2022-12-22T03:46:05.429Z,989.47
2022-12-22T03:47:05.645Z,989.43
2022-12-22T03:48:05.835Z,989.40
2022-12-22T03:49:05.607Z,989.43
2022-12-22T03:50:06.395Z,989.38
2022-12-22T03:51:06.740Z,989.37
2022-12-22T03:52:06.987Z,989.40
2022-12-22T03:53:07.231Z,989.38
2022-12-22T03:54:07.473Z,989.32
2022-12-22T03:55:07.671Z,989.30
2022-12-22T03:56:08.280Z,989.31
2022-12-22T03:57:08.093Z,989.29
2022-12-22T03:58:08.362Z,989.22
2022-12-22T03:59:08.619Z,989.24
2022-12-22T04:00:08.951Z,989.19
2022-12-22T04:01:09.707Z,989.13
2022-12-22T04:02:09.482Z,989.11
2022-12-22T04:03:10.425Z,989.11
2022-12-22T04:04:10.780Z,989.13
2022-12-22T04:05:10.578Z,989.08
2022-12-22T04:06:10.903Z,989.12
2022-12-22T04:07:11.175Z,989.09
2022-12-22T04:08:11.436Z,989.09
2022-12-22T04:09:11.711Z,989.07
2022-12-22T04:10:12.015Z,989.07
2022-12-22T04:11:12.291Z,989.11
2022-12-22T04:12:12.528Z,989.06
2022-12-22T04:13:12.731Z,989.06
2022-12-22T04:14:12.949Z,989.11
2022-12-22T04:15:13.709Z,989.04
2022-12-22T04:16:14.556Z,989.07
2022-12-22T04:17:12.929Z,989.01
2022-12-22T04:18:15.178Z,988.96
2022-12-22T04:19:13.466Z,988.95
2022-12-22T04:20:13.905Z,988.96
2022-12-22T04:21:15.121Z,988.95
2022-12-22T04:22:16.384Z,988.99
2022-12-22T04:23:14.702Z,988.95
2022-12-22T04:24:14.985Z,988.99
2022-12-22T04:25:15.278Z,988.94
2022-12-22T04:26:15.588Z,988.88
2022-12-22T04:27:17.824Z,988.90
2022-12-22T04:28:18.102Z,988.85
2022-12-22T04:29:18.377Z,988.87
2022-12-22T04:30:18.074Z,988.88
2022-12-22T04:31:18.852Z,988.89
2022-12-22T04:32:17.282Z,988.90
2022-12-22T04:33:17.711Z,988.86
2022-12-22T04:34:17.961Z,988.83
2022-12-22T04:35:19.173Z,988.86
2022-12-22T04:36:20.376Z,988.85
2022-12-22T04:37:20.598Z,988.83
2022-12-22T04:38:19.829Z,988.80
2022-12-22T04:39:19.110Z,988.81
2022-12-22T04:40:19.354Z,988.74
2022-12-22T04:41:19.605Z,988.73
2022-12-22T04:42:19.875Z,988.71
2022-12-22T04:43:21.068Z,988.69
2022-12-22T04:44:20.356Z,988.64
2022-12-22T04:45:20.618Z,988.63
2022-12-22T04:46:22.889Z,988.66
2022-12-22T04:47:23.174Z,988.66
2022-12-22T04:48:22.925Z,988.65
2022-12-22T04:49:22.632Z,988.61
2022-12-22T04:50:23.868Z,988.61
2022-12-22T04:51:22.102Z,988.65
2022-12-22T04:52:24.328Z,988.54
2022-12-22T04:53:22.613Z,988.55
2022-12-22T04:54:22.866Z,988.50
2022-12-22T04:55:24.105Z,988.42
2022-12-22T04:56:23.498Z,988.48
2022-12-22T04:57:24.714Z,988.37
2022-12-22T04:58:25.956Z,988.40
2022-12-22T04:59:24.227Z,988.37
2022-12-22T05:00:26.464Z,988.36
2022-12-22T05:01:24.773Z,988.32
2022-12-22T05:02:25.314Z,988.26
2022-12-22T05:03:25.694Z,988.26
2022-12-22T05:04:26.015Z,988.26
2022-12-22T05:05:28.188Z,988.29
2022-12-22T05:06:26.453Z,988.24
2022-12-22T05:07:28.678Z,988.26
2022-12-22T05:08:28.875Z,988.27
2022-12-22T05:09:29.118Z,988.26
2022-12-22T05:10:28.434Z,988.23
2022-12-22T05:11:28.639Z,988.26
2022-12-22T05:12:29.830Z,988.24
2022-12-22T05:13:28.117Z,988.24
2022-12-22T05:14:28.477Z,988.24
2022-12-22T05:15:30.283Z,988.23
2022-12-22T05:16:30.027Z,988.22
2022-12-22T05:17:29.315Z,988.18
2022-12-22T05:18:29.619Z,988.22
2022-12-22T05:19:31.162Z,988.12
2022-12-22T05:20:29.912Z,988.17
2022-12-22T05:21:30.193Z,988.16
2022-12-22T05:22:31.956Z,988.13
2022-12-22T05:23:30.772Z,988.10
2022-12-22T05:24:33.047Z,988.08
2022-12-22T05:25:35.498Z,988.08
2022-12-22T05:26:33.106Z,988.07
2022-12-22T05:27:32.831Z,988.09
2022-12-22T05:28:33.070Z,988.04
2022-12-22T05:29:33.786Z,988.08
2022-12-22T05:30:33.595Z,988.04
2022-12-22T05:31:32.924Z,988.05
2022-12-22T05:32:34.153Z,988.02
2022-12-22T05:33:35.434Z,987.98
2022-12-22T05:34:33.749Z,988.02
2022-12-22T05:35:34.011Z,987.95
2022-12-22T05:36:35.770Z,987.97
2022-12-22T05:37:34.526Z,987.97
2022-12-22T05:38:36.828Z,987.98
2022-12-22T05:39:35.160Z,988.01
2022-12-22T05:40:35.435Z,987.99
2022-12-22T05:41:35.804Z,987.94
2022-12-22T05:42:36.082Z,987.97
2022-12-22T05:43:36.351Z,987.93
2022-12-22T05:44:36.631Z,987.91
2022-12-22T05:45:38.856Z,987.94
2022-12-22T05:46:37.249Z,987.90
2022-12-22T05:47:37.563Z,987.95
2022-12-22T05:48:40.078Z,987.94
2022-12-22T05:49:39.583Z,987.90
2022-12-22T05:50:40.267Z,987.87
2022-12-22T05:51:40.512Z,987.86
2022-12-22T05:52:39.767Z,987.87
2022-12-22T05:53:39.051Z,987.85
2022-12-22T05:54:39.362Z,987.87
2022-12-22T05:55:39.648Z,987.90
2022-12-22T05:56:39.914Z,987.87
2022-12-22T05:57:40.204Z,987.85
2022-12-22T05:58:41.908Z,987.84
2022-12-22T05:59:40.653Z,987.84
2022-12-22T06:00:40.901Z,987.88
2022-12-22T06:01:41.230Z,987.84
2022-12-22T06:02:43.628Z,987.82
2022-12-22T06:03:41.683Z,987.84
2022-12-22T06:04:42.014Z,987.85
2022-12-22T06:05:44.256Z,987.81
2022-12-22T06:06:43.485Z,987.78
2022-12-22T06:07:45.223Z,987.70
2022-12-22T06:08:43.937Z,987.77
2022-12-22T06:09:43.193Z,987.83
2022-12-22T06:10:43.546Z,987.78
2022-12-22T06:11:43.962Z,987.78
2022-12-22T06:12:45.772Z,987.73
2022-12-22T06:13:44.590Z,987.78
2022-12-22T06:14:45.787Z,987.73
2022-12-22T06:15:47.002Z,987.77
2022-12-22T06:16:47.272Z,987.75
2022-12-22T06:17:46.370Z,987.77
2022-12-22T06:18:46.424Z,987.74
2022-12-22T06:19:45.704Z,987.74
2022-12-22T06:20:45.995Z,987.77
2022-12-22T06:21:46.293Z,987.78
2022-12-22T06:22:47.354Z,987.75
2022-12-22T06:23:47.521Z,987.78
2022-12-22T06:24:47.653Z,987.74
2022-12-22T06:25:47.827Z,987.75
2022-12-22T06:26:47.941Z,987.71
2022-12-22T06:27:48.087Z,987.70
2022-12-22T06:28:48.261Z,987.72
2022-12-22T06:29:48.547Z,987.66
2022-12-22T06:30:48.873Z,987.66
2022-12-22T06:31:49.116Z,987.70
2022-12-22T06:32:49.421Z,987.64
2022-12-22T06:33:49.708Z,987.65
2022-12-22T06:34:49.971Z,987.62
2022-12-22T06:35:57.439Z,987.64
2022-12-22T06:36:50.620Z,987.65
2022-12-22T06:37:50.748Z,987.64
2022-12-22T06:38:50.890Z,987.61
2022-12-22T06:39:51.130Z,987.63
2022-12-22T06:40:51.493Z,987.60
2022-12-22T06:41:52.749Z,987.63
2022-12-22T06:42:51.773Z,987.59
2022-12-22T06:43:52.058Z,987.59
2022-12-22T06:44:52.310Z,987.50
2022-12-22T06:45:52.612Z,987.57
2022-12-22T06:46:53.039Z,987.50
2022-12-22T06:47:53.131Z,987.56
2022-12-22T06:48:53.414Z,987.60
2022-12-22T06:49:53.731Z,987.60
2022-12-22T06:50:53.849Z,987.54
2022-12-22T06:51:54.092Z,987.55
2022-12-22T06:52:55.341Z,987.49
2022-12-22T06:53:54.627Z,987.53
2022-12-22T06:54:54.858Z,987.48
2022-12-22T06:55:54.875Z,987.46
2022-12-22T06:56:55.080Z,987.45
2022-12-22T06:57:55.223Z,987.43
2022-12-22T06:58:55.413Z,987.43
2022-12-22T06:59:57.665Z,987.39
2022-12-22T07:00:55.880Z,987.42
2022-12-22T07:01:56.008Z,987.42
2022-12-22T07:02:56.468Z,987.40
2022-12-22T07:03:56.744Z,987.40
2022-12-22T07:04:56.134Z,987.44
2022-12-22T07:05:57.279Z,987.40
2022-12-22T07:06:57.451Z,987.47
2022-12-22T07:08:01.187Z,987.47
2022-12-22T07:08:57.836Z,987.46
2022-12-22T07:09:57.928Z,987.43
2022-12-22T07:10:58.078Z,987.45
2022-12-22T07:11:58.387Z,987.41
2022-12-22T07:12:58.821Z,987.37
2022-12-22T07:13:59.118Z,987.37
2022-12-22T07:14:59.222Z,987.42
2022-12-22T07:16:01.067Z,987.39
2022-12-22T07:17:00.293Z,987.44
2022-12-22T07:17:59.755Z,987.44
2022-12-22T07:18:59.887Z,987.40
2022-12-22T07:19:59.984Z,987.40
2022-12-22T07:21:00.164Z,987.40
2022-12-22T07:22:00.376Z,987.41
2022-12-22T07:23:00.621Z,987.39
2022-12-22T07:24:01.024Z,987.41
2022-12-22T07:25:01.295Z,987.40
2022-12-22T07:26:00.838Z,987.43
2022-12-22T07:27:01.637Z,987.47
2022-12-22T07:28:01.891Z,987.44
2022-12-22T07:29:01.986Z,987.42
2022-12-22T07:30:02.130Z,987.44
2022-12-22T07:31:01.510Z,987.44
2022-12-22T07:32:02.757Z,987.44
2022-12-22T07:33:03.036Z,987.44
2022-12-22T07:34:03.336Z,987.37
2022-12-22T07:35:05.832Z,987.41
2022-12-22T07:36:05.891Z,987.42
2022-12-22T07:37:04.642Z,987.36
2022-12-22T07:38:04.409Z,987.37
2022-12-22T07:39:04.671Z,987.43
2022-12-22T07:40:05.076Z,987.36
2022-12-22T07:41:05.733Z,987.36
2022-12-22T07:42:06.712Z,987.41
2022-12-22T07:43:06.025Z,987.34
2022-12-22T07:44:06.402Z,987.39
2022-12-22T07:45:06.758Z,987.37
2022-12-22T07:46:06.849Z,987.37
2022-12-22T07:47:07.075Z,987.33
2022-12-22T07:48:06.668Z,987.39
2022-12-22T07:49:07.485Z,987.34
2022-12-22T07:50:08.846Z,987.37
2022-12-22T07:51:08.072Z,987.36
2022-12-22T07:52:08.349Z,987.31
2022-12-22T07:53:08.681Z,987.36
2022-12-22T07:54:08.769Z,987.26
2022-12-22T07:55:09.190Z,987.29
2022-12-22T07:56:09.377Z,987.26
2022-12-22T07:57:09.627Z,987.28
2022-12-22T07:58:09.719Z,987.29
2022-12-22T07:59:09.975Z,987.31
2022-12-22T08:00:10.259Z,987.25
2022-12-22T08:01:10.534Z,987.27
2022-12-22T08:02:10.920Z,987.23
2022-12-22T08:03:12.145Z,987.20
2022-12-22T08:04:11.420Z,987.24
2022-12-22T08:05:11.768Z,987.27
2022-12-22T08:06:11.973Z,987.24
2022-12-22T08:07:12.771Z,987.23
2022-12-22T08:08:12.635Z,987.25
2022-12-22T08:09:12.961Z,987.25
2022-12-22T08:10:13.500Z,987.23
2022-12-22T08:11:13.018Z,987.25
2022-12-22T08:12:13.232Z,987.24
2022-12-22T08:13:13.631Z,987.23
2022-12-22T08:14:13.909Z,987.31
2022-12-22T08:15:14.131Z,987.30
2022-12-22T08:16:14.498Z,987.25
2022-12-22T08:17:14.797Z,987.30
2022-12-22T08:18:14.252Z,987.31
2022-12-22T08:19:15.556Z,987.36
2022-12-22T08:20:15.872Z,987.35
2022-12-22T08:21:15.919Z,987.29
2022-12-22T08:22:15.367Z,987.30
2022-12-22T08:23:16.551Z,987.32
2022-12-22T08:24:16.714Z,987.35
2022-12-22T08:25:16.803Z,987.34
2022-12-22T08:26:16.996Z,987.36
2022-12-22T08:27:22.389Z,987.36
2022-12-22T08:28:17.627Z,987.45
2022-12-22T08:29:17.991Z,987.41
2022-12-22T08:30:18.363Z,987.40
2022-12-22T08:31:18.759Z,987.46
2022-12-22T08:32:19.048Z,987.37
2022-12-22T08:33:19.315Z,987.44
2022-12-22T08:34:19.623Z,987.45
2022-12-22T08:35:19.915Z,987.44
2022-12-22T08:36:20.205Z,987.44
2022-12-22T08:37:20.476Z,987.46
2022-12-22T08:38:20.868Z,987.42
2022-12-22T08:39:21.241Z,987.36
2022-12-22T08:40:22.121Z,987.40
2022-12-22T08:41:22.019Z,987.44
2022-12-22T08:42:22.360Z,987.45
2022-12-22T08:43:22.762Z,987.45
2022-12-22T08:44:22.947Z,987.47
2022-12-22T08:45:23.135Z,987.49
2022-12-22T08:46:23.536Z,987.45
2022-12-22T08:47:23.904Z,987.48
2022-12-22T08:48:24.310Z,987.46
2022-12-22T08:49:24.764Z,987.47
2022-12-22T08:50:24.947Z,987.47
2022-12-22T08:51:26.288Z,987.51
2022-12-22T08:52:25.604Z,987.53
2022-12-22T08:54:02.572Z,987.50
2022-12-22T08:54:25.547Z,987.53
2022-12-22T08:55:26.355Z,987.49
2022-12-22T08:56:26.682Z,987.58
2022-12-22T08:57:27.037Z,987.58
2022-12-22T08:58:27.439Z,987.61
2022-12-22T08:59:27.645Z,987.58
2022-12-22T09:00:28.997Z,987.59
2022-12-22T09:01:28.496Z,987.58
2022-12-22T09:02:28.281Z,987.64
2022-12-22T09:03:28.700Z,987.63
2022-12-22T09:04:29.587Z,987.64
2022-12-22T09:05:29.502Z,987.65
2022-12-22T09:06:33.326Z,987.68
2022-12-22T09:07:30.245Z,987.66
2022-12-22T09:08:30.326Z,987.77
2022-12-22T09:09:30.823Z,987.73
2022-12-22T09:10:31.035Z,987.68
2022-12-22T09:11:31.142Z,987.70
2022-12-22T09:12:31.695Z,987.76
2022-12-22T09:13:30.866Z,987.73
2022-12-22T09:14:31.736Z,987.74
2022-12-22T09:15:32.011Z,987.77
2022-12-22T09:16:32.356Z,987.72
2022-12-22T09:17:32.768Z,987.70
2022-12-22T09:18:34.069Z,987.72
2022-12-22T09:19:33.198Z,987.76
2022-12-22T09:20:33.468Z,987.79
2022-12-22T09:21:33.803Z,987.79
2022-12-22T09:22:34.132Z,987.79
2022-12-22T09:23:34.402Z,987.84
2022-12-22T09:24:34.811Z,987.77
2022-12-22T09:25:35.108Z,987.80
2022-12-22T09:26:35.475Z,987.80
2022-12-22T09:27:35.959Z,987.83
2022-12-22T09:28:36.954Z,987.81
2022-12-22T09:29:36.726Z,987.85
2022-12-22T09:30:37.169Z,987.84
2022-12-22T09:31:37.645Z,987.80
2022-12-22T09:32:37.280Z,987.81
2022-12-22T09:33:37.434Z,987.83
2022-12-22T09:34:37.698Z,987.83
2022-12-22T09:35:38.562Z,987.84
2022-12-22T09:36:38.391Z,987.83
2022-12-22T09:37:37.857Z,987.83
2022-12-22T09:38:39.143Z,987.84
2022-12-22T09:39:39.547Z,987.85
2022-12-22T09:40:39.852Z,987.83
2022-12-22T09:41:40.113Z,987.85
2022-12-22T09:42:40.154Z,987.83
2022-12-22T09:43:40.425Z,987.84
2022-12-22T09:44:40.088Z,987.83
2022-12-22T09:45:40.055Z,987.86
2022-12-22T09:46:41.300Z,987.80
2022-12-22T09:47:40.710Z,987.84
2022-12-22T09:48:41.089Z,987.87
2022-12-22T09:49:42.454Z,987.91
2022-12-22T09:50:41.911Z,987.86
2022-12-22T09:51:43.232Z,987.88
2022-12-22T09:52:43.972Z,987.89
2022-12-22T09:53:43.768Z,987.92
2022-12-22T09:54:44.070Z,987.97
2022-12-22T09:55:44.283Z,987.98
2022-12-22T09:56:45.118Z,987.98
2022-12-22T09:57:43.972Z,988.04
2022-12-22T09:58:45.272Z,988.09
2022-12-22T09:59:44.615Z,988.06
2022-12-22T10:00:46.909Z,988.07
2022-12-22T10:01:46.094Z,988.04
2022-12-22T10:02:46.224Z,988.12
2022-12-22T10:03:46.676Z,988.13
2022-12-22T10:04:47.022Z,988.23
2022-12-22T10:05:47.195Z,988.14
2022-12-22T10:06:47.463Z,988.19
2022-12-22T10:07:47.745Z,988.20
2022-12-22T10:08:48.036Z,988.24
2022-12-22T10:09:50.845Z,988.28
2022-12-22T10:10:48.273Z,988.23
2022-12-22T10:11:48.633Z,988.27
2022-12-22T10:12:48.903Z,988.27
2022-12-22T10:13:49.174Z,988.23
2022-12-22T10:14:49.611Z,988.26
2022-12-22T10:15:49.988Z,988.27
2022-12-22T10:16:50.399Z,988.36
2022-12-22T10:17:52.287Z,988.32
2022-12-22T10:18:51.115Z,988.35
2022-12-22T10:19:51.564Z,988.37
2022-12-22T10:20:51.815Z,988.37
2022-12-22T10:21:52.107Z,988.36
2022-12-22T10:22:52.440Z,988.41
2022-12-22T10:23:52.689Z,988.49
2022-12-22T10:24:52.894Z,988.42
2022-12-22T10:26:26.723Z,988.49
2022-12-22T10:26:54.106Z,988.39
2022-12-22T10:27:53.905Z,988.40
2022-12-22T10:28:55.154Z,988.44
2022-12-22T10:29:54.449Z,988.45
2022-12-22T10:30:54.488Z,988.49
2022-12-22T10:31:54.987Z,988.50
2022-12-22T10:32:54.531Z,988.54
2022-12-22T10:33:54.827Z,988.54
2022-12-22T10:34:55.143Z,988.57
2022-12-22T10:35:55.263Z,988.64
2022-12-22T10:36:55.427Z,988.64
2022-12-22T10:37:55.734Z,988.61
2022-12-22T10:38:57.234Z,988.55
2022-12-22T10:39:56.601Z,988.62
2022-12-22T10:41:01.889Z,988.68
2022-12-22T10:41:57.102Z,988.65
2022-12-22T10:42:57.439Z,988.74
2022-12-22T10:43:58.859Z,988.71
2022-12-22T10:44:58.277Z,988.74
2022-12-22T10:45:58.611Z,988.74
2022-12-22T10:46:58.986Z,988.75
2022-12-22T10:47:59.249Z,988.71
2022-12-22T10:48:59.429Z,988.76
2022-12-22T10:50:59.078Z,988.77
2022-12-22T10:52:00.147Z,988.75
2022-12-22T10:52:59.534Z,988.76
2022-12-22T10:54:00.724Z,988.76
2022-12-22T10:55:00.960Z,988.77
2022-12-22T10:56:01.205Z,988.79
2022-12-22T10:57:02.017Z,988.76
2022-12-22T10:58:05.438Z,988.69
2022-12-22T10:59:01.831Z,988.76
2022-12-22T11:00:02.138Z,988.75
2022-12-22T11:01:02.457Z,988.75
2022-12-22T11:02:02.975Z,988.82
2022-12-22T11:03:03.597Z,988.80
2022-12-22T11:04:02.982Z,988.82
2022-12-22T11:05:02.966Z,988.79
2022-12-22T11:06:03.694Z,988.71
2022-12-22T11:07:03.810Z,988.75
2022-12-22T11:08:04.338Z,988.79
2022-12-22T11:09:31.887Z,988.85
2022-12-22T11:10:04.995Z,988.89
2022-12-22T11:11:04.306Z,988.97
2022-12-22T11:12:04.583Z,988.98
2022-12-22T11:13:04.807Z,988.97
2022-12-22T11:14:04.962Z,988.98
2022-12-22T11:15:05.103Z,988.99
2022-12-22T11:16:05.405Z,989.05
2022-12-22T11:17:04.853Z,989.04
2022-12-22T11:18:06.096Z,988.98
2022-12-22T11:19:06.312Z,989.00
2022-12-22T11:20:05.681Z,989.02
2022-12-22T11:21:06.849Z,989.02
2022-12-22T11:22:07.106Z,989.03
2022-12-22T11:23:08.417Z,989.01
2022-12-22T11:24:07.583Z,988.99
2022-12-22T11:25:07.795Z,989.05
2022-12-22T11:26:07.971Z,989.08
2022-12-22T11:27:08.079Z,989.07
2022-12-22T11:28:08.492Z,989.11
2022-12-22T11:29:08.607Z,989.10
2022-12-22T11:30:08.885Z,989.08
2022-12-22T11:31:09.046Z,989.12
2022-12-22T11:32:09.145Z,989.22
2022-12-22T11:33:09.302Z,989.22
2022-12-22T11:34:09.683Z,989.26
2022-12-22T11:35:09.831Z,989.30
2022-12-22T11:36:10.104Z,989.32
2022-12-22T11:37:10.256Z,989.29
2022-12-22T11:38:10.614Z,989.39
2022-12-22T11:39:10.742Z,989.42
2022-12-22T11:40:10.874Z,989.45
2022-12-22T11:41:11.113Z,989.45
2022-12-22T11:42:11.182Z,989.45
2022-12-22T11:43:11.418Z,989.47
2022-12-22T11:44:11.746Z,989.50
2022-12-22T11:45:12.045Z,989.53
2022-12-22T11:46:12.351Z,989.58
2022-12-22T11:47:12.601Z,989.61
2022-12-22T11:48:12.689Z,989.65
2022-12-22T11:49:12.978Z,989.64
2022-12-22T11:51:01.998Z,989.67
2022-12-22T11:51:28.238Z,989.70
2022-12-22T11:52:26.542Z,989.70
2022-12-22T11:53:26.518Z,989.79
2022-12-22T11:54:27.393Z,989.72
2022-12-22T11:55:27.737Z,989.81
2022-12-22T11:56:27.861Z,989.77
2022-12-22T11:57:28.133Z,989.81
2022-12-22T11:58:28.365Z,989.86
2022-12-22T11:59:28.750Z,989.89
2022-12-22T12:01:03.760Z,989.89
2022-12-22T12:01:29.557Z,989.92
2022-12-22T12:02:29.883Z,989.87
2022-12-22T12:03:30.002Z,989.92
2022-12-22T12:04:29.980Z,989.93
2022-12-22T12:05:30.000Z,989.92
2022-12-22T12:06:30.466Z,989.93
2022-12-22T12:07:30.841Z,989.94
2022-12-22T12:08:31.193Z,989.97
2022-12-22T12:09:31.532Z,989.98
2022-12-22T12:10:31.590Z,989.97
2022-12-22T12:11:31.814Z,990.04
2022-12-22T12:12:31.942Z,989.99
2022-12-22T12:13:37.016Z,990.04
2022-12-22T12:14:32.485Z,990.03
2022-12-22T12:15:32.790Z,990.02
2022-12-22T12:16:33.149Z,990.02
2022-12-22T12:17:32.519Z,990.01
2022-12-22T12:18:33.831Z,990.00
2022-12-22T12:19:34.052Z,990.04
2022-12-22T12:20:34.420Z,990.05
2022-12-22T12:21:34.643Z,990.10
2022-12-22T12:22:34.921Z,990.14
2022-12-22T12:23:34.975Z,990.14
2022-12-22T12:24:35.257Z,990.12
2022-12-22T12:25:35.550Z,990.13
2022-12-22T12:26:35.929Z,990.17
2022-12-22T12:27:35.252Z,990.09
2022-12-22T12:28:36.587Z,990.06
2022-12-22T12:29:36.665Z,990.09
2022-12-22T12:30:38.477Z,990.10
2022-12-22T12:31:37.084Z,990.15
2022-12-22T12:32:37.143Z,990.16
2022-12-22T12:33:37.471Z,990.17